createdAt,value
2019-01-12T00:00:23.061Z,38.60
2019-01-12T00:05:25.529Z,39.00
2019-01-12T00:10:27.992Z,37.57
2019-01-12T00:15:30.453Z,35.87
2019-01-12T00:20:32.926Z,37.00
2019-01-12T00:25:35.400Z,36.83
2019-01-12T00:30:37.853Z,33.87
2019-01-12T00:35:40.303Z,34.73
2019-01-12T00:40:42.772Z,36.17
2019-01-12T00:45:45.235Z,36.07
2019-01-12T00:50:47.711Z,37.03
2019-01-12T00:55:50.172Z,35.23
2019-01-12T01:00:52.631Z,35.80
2019-01-12T01:05:55.094Z,35.13
2019-01-12T01:10:57.561Z,35.47
2019-01-12T01:16:00.016Z,35.93
2019-01-12T01:21:02.499Z,35.70
2019-01-12T01:26:04.971Z,39.40
2019-01-12T01:31:07.415Z,35.70
2019-01-12T01:36:09.870Z,33.10
2019-01-12T01:41:12.333Z,35.60
2019-01-12T01:46:14.803Z,34.83
2019-01-12T01:51:17.281Z,35.67
2019-01-12T01:56:19.736Z,33.13
2019-01-12T02:01:22.194Z,36.13
2019-01-12T02:06:24.715Z,35.33
2019-01-12T02:11:27.135Z,36.60
2019-01-12T02:16:29.594Z,37.77
2019-01-12T02:21:32.072Z,33.87
2019-01-12T02:26:34.557Z,36.17
2019-01-12T02:31:37.042Z,33.87
2019-01-12T02:36:39.552Z,35.47
2019-01-12T02:41:41.949Z,36.33
2019-01-12T02:46:44.407Z,36.50
2019-01-12T02:51:46.873Z,35.37
2019-01-12T02:56:49.344Z,34.97
2019-01-12T03:01:51.809Z,36.47
2019-01-12T03:06:54.277Z,34.50
2019-01-12T03:11:56.742Z,35.40
2019-01-12T03:16:59.279Z,35.53
2019-01-12T03:22:01.685Z,36.43
2019-01-12T03:27:04.147Z,36.37
2019-01-12T03:32:06.615Z,34.70
2019-01-12T03:37:09.059Z,34.03
2019-01-12T03:42:11.518Z,34.43
2019-01-12T03:47:13.995Z,36.83
2019-01-12T03:52:16.471Z,36.30
2019-01-12T03:57:18.935Z,34.27
2019-01-12T04:02:21.392Z,34.23
2019-01-12T04:07:23.854Z,36.67
2019-01-12T04:12:26.334Z,34.10
2019-01-12T04:17:28.835Z,33.53
2019-01-12T04:22:31.295Z,32.53
2019-01-12T04:27:33.735Z,33.13
2019-01-12T04:32:36.186Z,33.03
2019-01-12T04:37:38.650Z,33.97
2019-01-12T04:42:41.120Z,34.63
2019-01-12T04:47:43.586Z,33.30
2019-01-12T04:52:46.045Z,34.47
2019-01-12T04:57:48.506Z,35.57
2019-01-12T05:02:50.964Z,33.63
2019-01-12T05:07:53.422Z,34.77
2019-01-12T05:12:55.885Z,36.53
2019-01-12T05:17:58.338Z,36.70
2019-01-12T05:23:00.812Z,37.77
2019-01-12T05:28:03.266Z,38.83
2019-01-12T05:33:05.720Z,38.63
2019-01-12T05:38:08.191Z,34.50
2019-01-12T05:43:10.645Z,39.30
2019-01-12T05:48:13.118Z,36.73
2019-01-12T05:53:15.573Z,37.10
2019-01-12T05:58:18.051Z,36.17
2019-01-12T06:03:20.510Z,35.53
2019-01-12T06:08:22.974Z,35.37
2019-01-12T06:13:25.433Z,38.70
2019-01-12T06:18:27.912Z,36.63
2019-01-12T06:23:30.363Z,37.60
2019-01-12T06:28:32.895Z,35.97
2019-01-12T06:33:35.399Z,37.20
2019-01-12T06:38:37.897Z,37.57
2019-01-12T06:43:40.352Z,37.40
2019-01-12T06:48:42.852Z,39.60
2019-01-12T06:53:45.313Z,37.80
2019-01-12T06:58:47.764Z,40.27
2019-01-12T07:03:50.231Z,39.43
2019-01-12T07:08:52.709Z,38.63
2019-01-12T07:13:58.017Z,39.27
2019-01-12T07:19:00.415Z,38.73
2019-01-12T07:24:03.453Z,41.17
2019-01-12T07:29:05.939Z,38.87
2019-01-12T07:34:08.385Z,39.67
2019-01-12T07:39:10.866Z,40.57
2019-01-12T07:44:13.315Z,41.07
2019-01-12T07:49:15.784Z,38.23
2019-01-12T07:54:18.251Z,51.97
2019-01-12T07:59:20.708Z,34.83
2019-01-12T08:04:23.176Z,35.80
2019-01-12T08:09:25.639Z,35.77
2019-01-12T08:14:28.098Z,38.37
2019-01-12T08:19:30.563Z,39.73
2019-01-12T08:24:33.008Z,37.53
2019-01-12T08:29:35.454Z,33.80
2019-01-12T08:34:37.939Z,36.33
2019-01-12T08:39:40.397Z,37.57
2019-01-12T08:44:42.852Z,32.60
2019-01-12T08:49:45.314Z,31.90
2019-01-12T08:54:47.791Z,34.30
2019-01-12T08:59:50.246Z,34.17
2019-01-12T09:04:52.705Z,33.10
2019-01-12T09:09:55.174Z,30.53
2019-01-12T09:14:57.647Z,31.57
2019-01-12T09:20:00.155Z,33.60
2019-01-12T09:25:02.610Z,32.40
2019-01-12T09:30:13.858Z,32.57
2019-01-12T09:35:16.332Z,34.43
2019-01-12T09:40:18.942Z,32.73
2019-01-12T09:45:21.406Z,31.37
2019-01-12T09:50:23.863Z,31.03
2019-01-12T09:55:26.333Z,31.17
2019-01-12T10:00:28.799Z,30.77
2019-01-12T10:05:31.262Z,27.60
2019-01-12T10:10:33.723Z,26.63
2019-01-12T10:15:36.261Z,28.07
2019-01-12T10:20:38.757Z,30.50
2019-01-12T10:25:41.232Z,25.17
2019-01-12T10:30:43.698Z,24.53
2019-01-12T10:35:46.224Z,25.93
2019-01-12T10:40:48.686Z,24.70
2019-01-12T10:45:51.179Z,26.27
2019-01-12T10:50:53.608Z,25.43
2019-01-12T10:55:56.071Z,27.10
2019-01-12T11:00:58.550Z,25.47
2019-01-12T11:06:01.037Z,26.77
2019-01-12T11:11:03.513Z,29.03
2019-01-12T11:16:06.014Z,26.03
2019-01-12T11:21:08.476Z,26.23
2019-01-12T11:26:10.958Z,25.87
2019-01-12T11:31:19.624Z,25.50
2019-01-12T11:36:15.898Z,24.97
2019-01-12T11:41:18.357Z,26.67
2019-01-12T11:46:20.819Z,26.70
2019-01-12T11:51:23.284Z,24.67
2019-01-12T11:56:25.755Z,23.30
2019-01-12T12:01:28.262Z,39.60
2019-01-12T12:06:30.794Z,25.63
2019-01-12T12:11:33.258Z,29.30
2019-01-12T12:16:35.725Z,25.50
2019-01-12T12:21:38.185Z,25.13
2019-01-12T12:26:40.665Z,24.40
2019-01-12T12:31:43.143Z,24.27
2019-01-12T12:36:45.607Z,35.53
2019-01-12T12:41:48.095Z,23.80
2019-01-12T12:46:50.570Z,21.83
2019-01-12T12:51:53.028Z,22.80
2019-01-12T12:56:55.504Z,22.90
2019-01-12T13:01:57.959Z,21.40
2019-01-12T13:07:00.439Z,21.33
2019-01-12T13:12:02.918Z,22.60
2019-01-12T13:17:05.374Z,25.93
2019-01-12T13:22:07.879Z,22.00
2019-01-12T13:27:10.331Z,22.30
2019-01-12T13:32:12.793Z,23.83
2019-01-12T13:37:15.301Z,20.97
2019-01-12T13:42:17.777Z,21.97
2019-01-12T13:47:21.010Z,30.57
2019-01-12T13:52:22.760Z,20.93
2019-01-12T13:57:25.213Z,20.40
2019-01-12T14:02:27.676Z,21.27
2019-01-12T14:07:30.130Z,19.43
2019-01-12T14:12:32.604Z,20.20
2019-01-12T14:17:35.056Z,18.67
2019-01-12T14:22:37.540Z,21.47
2019-01-12T14:27:40.037Z,22.33
2019-01-12T14:32:42.502Z,31.73
2019-01-12T14:37:45.463Z,31.80
2019-01-12T14:42:49.759Z,23.57
2019-01-12T14:47:50.392Z,24.57
2019-01-12T14:52:52.890Z,23.77
2019-01-12T14:58:02.046Z,22.67
2019-01-12T15:02:57.909Z,22.10
2019-01-12T15:08:00.376Z,22.90
2019-01-12T15:13:02.868Z,20.80
2019-01-12T15:18:05.344Z,32.63
2019-01-12T15:23:07.835Z,20.07
2019-01-12T15:28:10.305Z,22.23
2019-01-12T15:33:14.242Z,20.63
2019-01-12T15:38:15.233Z,21.20
2019-01-12T15:43:17.697Z,19.97
2019-01-12T15:48:20.168Z,18.90
2019-01-12T15:53:22.638Z,21.20
2019-01-12T15:58:25.135Z,20.17
2019-01-12T16:03:27.606Z,26.23
2019-01-12T16:08:30.078Z,22.53
2019-01-12T16:13:32.542Z,22.00
2019-01-12T16:18:35.015Z,22.73
2019-01-12T16:23:37.478Z,21.03
2019-01-12T16:28:39.945Z,22.17
2019-01-12T16:33:42.655Z,24.97
2019-01-12T16:38:44.864Z,20.63
2019-01-12T16:43:47.332Z,21.10
2019-01-12T16:48:49.794Z,21.97
2019-01-12T16:53:52.275Z,20.00
2019-01-12T16:58:54.764Z,19.93
2019-01-12T17:03:57.228Z,18.03
2019-01-12T17:08:59.749Z,18.33
2019-01-12T17:14:02.212Z,16.83
2019-01-12T17:19:04.697Z,15.80
2019-01-12T17:24:07.155Z,15.63
2019-01-12T17:29:09.606Z,15.03
2019-01-12T17:34:12.068Z,20.53
2019-01-12T17:39:14.564Z,14.57
2019-01-12T17:44:17.051Z,15.43
2019-01-12T17:49:19.535Z,15.87
2019-01-12T17:54:21.998Z,15.27
2019-01-12T17:59:24.480Z,15.20
2019-01-12T18:04:26.970Z,15.47
2019-01-12T18:09:29.430Z,17.80
2019-01-12T18:14:31.900Z,16.57
2019-01-12T18:19:34.436Z,17.07
2019-01-12T18:24:36.877Z,17.23
2019-01-12T18:29:39.364Z,15.93
2019-01-12T18:34:41.840Z,16.53
2019-01-12T18:39:44.336Z,16.07
2019-01-12T18:44:46.751Z,15.27
2019-01-12T18:49:49.216Z,21.17
2019-01-12T18:54:51.683Z,16.30
2019-01-12T18:59:54.130Z,16.87
2019-01-12T19:04:56.628Z,16.37
2019-01-12T19:09:59.102Z,16.63
2019-01-12T19:15:01.575Z,15.93
2019-01-12T19:20:04.015Z,18.40
2019-01-12T19:25:06.477Z,28.20
2019-01-12T19:30:08.949Z,15.47
2019-01-12T19:35:11.402Z,16.00
2019-01-12T19:40:13.856Z,14.23
2019-01-12T19:45:16.330Z,15.27
2019-01-12T19:50:18.815Z,15.23
2019-01-12T19:55:21.298Z,14.43
2019-01-12T20:00:23.773Z,14.47
2019-01-12T20:05:26.222Z,12.73
2019-01-12T20:10:28.688Z,11.53
2019-01-12T20:15:31.162Z,13.17
2019-01-12T20:20:33.662Z,11.57
2019-01-12T20:25:36.129Z,13.17
2019-01-12T20:30:41.293Z,11.37
2019-01-12T20:36:02.056Z,11.77
2019-01-12T20:41:10.140Z,11.37
2019-01-12T20:46:18.774Z,10.10
2019-01-12T20:51:43.026Z,10.37
2019-01-12T20:56:54.306Z,10.00
2019-01-12T21:02:05.563Z,8.90
2019-01-12T21:07:35.711Z,9.27
2019-01-12T21:12:58.968Z,8.20
2019-01-12T21:18:01.443Z,8.40
2019-01-12T21:23:03.949Z,9.90
2019-01-12T21:28:06.486Z,16.23
2019-01-12T21:33:08.943Z,13.00
2019-01-12T21:38:11.422Z,13.53
2019-01-12T21:43:13.881Z,12.90
2019-01-12T21:48:16.358Z,15.47
2019-01-12T21:53:18.820Z,12.87
2019-01-12T21:58:21.301Z,15.30
2019-01-12T22:03:23.788Z,14.67
2019-01-12T22:08:26.248Z,16.30
2019-01-12T22:13:28.715Z,14.40
2019-01-12T22:18:31.209Z,13.60
2019-01-12T22:23:33.684Z,12.63
2019-01-12T22:28:36.162Z,13.47
2019-01-12T22:33:38.656Z,12.40
2019-01-12T22:38:41.140Z,12.43
2019-01-12T22:43:43.646Z,11.83
2019-01-12T22:48:46.126Z,10.40
2019-01-12T22:53:48.589Z,10.27
2019-01-12T22:58:51.055Z,10.30
2019-01-12T23:03:53.613Z,13.40
2019-01-12T23:08:56.079Z,9.63
2019-01-12T23:13:58.551Z,8.83
2019-01-12T23:19:01.029Z,9.30
2019-01-12T23:24:03.513Z,9.43
2019-01-12T23:29:05.977Z,9.37
2019-01-12T23:34:08.561Z,9.50
2019-01-12T23:39:11.027Z,9.63
2019-01-12T23:44:15.061Z,9.93
2019-01-12T23:49:15.974Z,9.03
2019-01-12T23:54:18.428Z,9.40
2019-01-12T23:59:20.900Z,9.30
